Time;durP1;ratioP1;P1;durP2;ratioP2;P2;SDS_P1;SDS_P2;PMS_P1;PMS_P2;Temp;Humidity;BMP_temperature;BMP_pressure;BME280_temperature;BME280_humidity;BME280_pressure;Samples;Min_cycle;Max_cycle;Signal;HPM_P1;HPM_P2
2021/07/01 00:05:13;;;;;;;4.97;3.40;;;;;;;19.06;76.28;98427.08;4347286;80;21056;-81
2021/07/01 00:11:16;;;;;;;10.45;4.22;;;;;;;19.02;76.11;98426.40;4330010;80;21107;-81
2021/07/01 00:17:17;;;;;;;8.03;4.47;;;;;;;18.84;75.90;98413.72;4346275;80;21097;-81
2021/07/01 00:23:18;;;;;;;9.18;4.62;;;;;;;18.55;76.92;98415.17;4354931;81;21022;-81
2021/07/01 00:29:19;;;;;;;5.25;3.77;;;;;;;18.52;76.62;98415.47;4365787;80;21547;-80
2021/07/01 00:35:21;;;;;;;12.20;5.00;;;;;;;18.11;77.07;98402.19;4332269;80;22287;-81
2021/07/01 00:41:22;;;;;;;8.88;4.72;;;;;;;18.10;77.46;98404.80;4343829;80;21092;-80
2021/07/01 00:47:24;;;;;;;9.10;4.65;;;;;;;18.05;77.50;98405.33;4345811;80;21050;-80
2021/07/01 00:53:26;;;;;;;4.90;3.92;;;;;;;17.93;77.63;98395.00;4334978;80;21014;-82
2021/07/01 00:59:28;;;;;;;8.50;4.53;;;;;;;17.68;77.73;98385.97;4321353;81;21020;-81
2021/07/01 01:05:30;;;;;;;6.03;4.00;;;;;;;17.44;78.66;98387.42;4308110;81;22009;-81
2021/07/01 01:11:33;;;;;;;8.15;4.47;;;;;;;17.58;79.28;98386.26;4336985;80;21153;-81
2021/07/01 01:17:44;;;;;;;7.25;4.87;;;;;;;17.59;78.75;98399.66;4335635;80;21024;-80
2021/07/01 01:23:47;;;;;;;7.67;4.97;;;;;;;17.49;79.33;98420.70;4330112;80;21058;-80
2021/07/01 01:29:49;;;;;;;5.42;3.90;;;;;;;17.50;79.62;98431.33;4340196;80;20990;-81
2021/07/01 01:36:09;;;;;;;5.55;3.75;;;;;;;17.53;79.71;98437.38;4329279;81;21003;-81
2021/07/01 01:42:11;;;;;;;5.58;4.35;;;;;;;17.47;80.01;98430.03;4351569;80;21081;-81
2021/07/01 01:48:14;;;;;;;7.15;4.72;;;;;;;17.59;80.51;98427.34;4326397;81;21447;-81
2021/07/01 01:54:16;;;;;;;6.33;4.33;;;;;;;17.80;80.75;98422.64;4333545;80;21504;-81
2021/07/01 02:00:23;;;;;;;9.43;4.80;;;;;;;17.91;80.59;98423.13;4326057;80;21079;-82
2021/07/01 02:06:31;;;;;;;7.87;4.92;;;;;;;17.87;80.32;98411.98;4342453;80;21142;-81
2021/07/01 02:12:33;;;;;;;6.75;5.08;;;;;;;17.76;80.47;98428.10;4342183;80;20994;-81
2021/07/01 02:18:36;;;;;;;8.35;4.55;;;;;;;17.80;80.81;98434.31;4338752;80;21035;-81
2021/07/01 02:24:37;;;;;;;6.83;4.20;;;;;;;17.90;81.12;98433.26;4345494;80;21136;-81
2021/07/01 02:30:39;;;;;;;5.97;3.85;;;;;;;17.93;81.09;98433.77;4342841;80;21035;-81
2021/07/01 02:36:42;;;;;;;7.42;4.75;;;;;;;17.86;81.16;98431.17;4344017;80;21149;-81
2021/07/01 02:42:48;;;;;;;6.55;4.40;;;;;;;17.86;81.21;98436.11;4311119;80;21058;-81
2021/07/01 02:48:50;;;;;;;11.38;4.60;;;;;;;17.95;81.47;98441.80;4316380;80;21157;-81
2021/07/01 02:54:52;;;;;;;7.72;4.70;;;;;;;18.04;81.42;98441.17;4271401;82;21111;-80
2021/07/01 03:00:54;;;;;;;8.73;4.33;;;;;;;17.96;81.01;98450.89;4271503;82;21038;-80
2021/07/01 03:06:55;;;;;;;7.47;4.47;;;;;;;17.92;81.50;98448.20;4274863;82;21042;-82
2021/07/01 03:12:57;;;;;;;13.20;4.42;;;;;;;18.03;81.60;98447.31;4273611;82;21053;-81
2021/07/01 03:18:58;;;;;;;6.20;4.10;;;;;;;18.11;81.54;98443.14;4270251;82;21065;-81
2021/07/01 03:25:18;;;;;;;10.85;4.35;;;;;;;18.10;81.41;98437.41;4273655;82;21078;-81
2021/07/01 03:31:19;;;;;;;7.78;4.60;;;;;;;18.15;81.61;98430.58;4216021;83;21034;-81
2021/07/01 03:37:21;;;;;;;10.18;4.50;;;;;;;18.24;81.53;98437.64;4248519;82;21570;-81
2021/07/01 03:43:44;;;;;;;6.83;4.33;;;;;;;18.28;81.41;98445.23;4253977;82;21035;-81
2021/07/01 03:49:45;;;;;;;10.05;4.28;;;;;;;18.22;81.28;98452.53;4278616;82;21164;-81
2021/07/01 03:56:06;;;;;;;9.05;4.75;;;;;;;18.22;81.34;98455.30;4124923;82;21875;-81
2021/07/01 04:02:08;;;;;;;9.90;4.87;;;;;;;18.04;81.43;98452.26;4033979;86;21142;-81
2021/07/01 04:08:10;;;;;;;7.12;4.22;;;;;;;18.01;81.77;98451.75;4046676;85;21629;-81
2021/07/01 04:14:17;;;;;;;8.95;4.30;;;;;;;17.96;81.77;98464.11;4059048;86;22408;-81
2021/07/01 04:20:35;;;;;;;7.17;4.25;;;;;;;18.07;82.11;98455.53;4048033;86;21004;-81
2021/07/01 04:26:55;;;;;;;6.50;4.22;;;;;;;18.14;81.80;98448.40;4049211;86;21099;-81
2021/07/01 04:32:58;;;;;;;6.00;4.25;;;;;;;18.03;81.94;98459.78;4043954;86;21090;-81
2021/07/01 04:39:00;;;;;;;10.58;4.72;;;;;;;18.01;82.57;98458.67;4062931;85;21050;-80
2021/07/01 04:45:06;;;;;;;11.00;4.67;;;;;;;18.19;82.55;98462.51;4066272;85;21091;-81
2021/07/01 04:51:09;;;;;;;11.63;4.30;;;;;;;18.33;82.53;98462.11;4056425;85;21133;-81
2021/07/01 04:57:29;;;;;;;8.03;4.83;;;;;;;18.49;82.48;98456.53;4063590;85;21089;-80
2021/07/01 05:03:31;;;;;;;11.10;5.65;;;;;;;18.58;82.21;98460.81;4068898;86;21089;-80
2021/07/01 05:09:33;;;;;;;13.72;6.15;;;;;;;18.66;82.09;98446.92;4069209;86;21137;-80
2021/07/01 05:15:36;;;;;;;17.50;6.08;;;;;;;18.67;82.26;98449.84;4065487;86;21062;-81
2021/07/01 05:21:40;;;;;;;10.60;5.60;;;;;;;18.70;82.17;98444.80;4068859;85;21094;-81
2021/07/01 05:27:49;;;;;;;10.08;5.35;;;;;;;18.73;81.94;98450.69;4050135;85;21666;-81
2021/07/01 05:34:12;;;;;;;7.60;4.95;;;;;;;18.78;81.91;98457.84;3890311;89;21181;-80
2021/07/01 05:40:17;;;;;;;13.28;6.42;;;;;;;18.82;82.03;98465.45;4025987;85;21099;-81
2021/07/01 05:46:17;;;;;;;10.25;5.78;;;;;;;18.82;81.99;98464.07;4043026;85;21178;-79
2021/07/01 05:52:26;;;;;;;10.15;5.45;;;;;;;18.88;82.04;98479.53;4039383;86;21531;-81
2021/07/01 05:58:25;;;;;;;8.73;6.03;;;;;;;18.90;82.34;98475.72;4042551;85;21066;-81
2021/07/01 06:04:26;;;;;;;12.20;7.35;;;;;;;18.96;82.27;98478.10;4036070;85;21527;-80
2021/07/01 06:10:47;;;;;;;10.23;6.35;;;;;;;19.05;82.07;98480.39;4068202;85;21909;-80
2021/07/01 06:16:53;;;;;;;8.20;4.85;;;;;;;19.06;81.98;98493.02;4027931;87;21052;-80
2021/07/01 06:22:54;;;;;;;9.20;4.78;;;;;;;19.17;82.41;98488.56;4046842;85;21123;-81
2021/07/01 06:28:56;;;;;;;10.55;5.40;;;;;;;19.27;82.44;98488.22;4101578;85;21742;-80
2021/07/01 06:34:58;;;;;;;8.38;4.10;;;;;;;19.31;82.47;98495.08;4033493;86;21094;-82
2021/07/01 06:41:24;;;;;;;;;;;;;;;;;;;;;
2021/07/01 06:47:34;;;;;;;8.95;4.20;;;;;;;19.45;82.59;98491.22;4045778;86;21125;-80
2021/07/01 06:53:52;;;;;;;6.05;3.67;;;;;;;19.53;82.52;98503.64;4026910;86;21206;-81
2021/07/01 06:59:55;;;;;;;7.93;4.00;;;;;;;19.67;82.27;98505.20;4059342;85;21053;-81
2021/07/01 07:05:57;;;;;;;9.40;3.90;;;;;;;19.80;82.09;98508.11;4062976;84;21136;-81
2021/07/01 07:11:59;;;;;;;9.50;3.95;;;;;;;19.84;81.41;98510.14;4070060;85;21022;-81
2021/07/01 07:18:21;;;;;;;7.65;4.40;;;;;;;19.81;80.91;98515.20;4054315;85;21075;-81
2021/07/01 07:24:28;;;;;;;5.92;3.70;;;;;;;19.82;80.67;98516.78;4065536;85;21077;-82
2021/07/01 07:30:29;;;;;;;7.55;3.75;;;;;;;19.81;80.16;98529.72;4066729;84;21031;-81
2021/07/01 07:36:35;;;;;;;9.63;4.22;;;;;;;19.80;80.08;98520.61;4071614;85;21086;-81
2021/07/01 07:42:37;;;;;;;8.45;4.30;;;;;;;19.83;79.75;98528.04;4100932;85;22238;-80
2021/07/01 07:48:41;;;;;;;7.33;4.45;;;;;;;19.85;79.14;98525.59;4023293;86;21189;-80
2021/07/01 07:54:50;;;;;;;7.47;4.35;;;;;;;19.85;78.88;98531.16;4069339;85;21505;-79
2021/07/01 08:00:55;;;;;;;9.30;4.35;;;;;;;19.85;78.78;98532.55;4049179;86;21194;-80
2021/07/01 08:06:57;;;;;;;8.05;4.62;;;;;;;19.83;78.40;98530.03;4061133;86;21069;-80
2021/07/01 08:13:06;;;;;;;10.05;4.37;;;;;;;19.78;78.41;98525.82;4057508;86;21051;-81
2021/07/01 08:19:08;;;;;;;9.23;4.90;;;;;;;19.69;78.21;98539.62;4038788;86;21087;-83
2021/07/01 08:25:11;;;;;;;11.73;5.80;;;;;;;19.67;78.18;98539.28;4063236;85;21089;-81
2021/07/01 08:31:16;;;;;;;11.15;5.42;;;;;;;19.56;78.42;98513.09;4038480;86;21091;-82
2021/07/01 08:37:21;;;;;;;14.60;7.58;;;;;;;19.61;78.79;98514.69;4049712;85;21073;-81
2021/07/01 08:43:27;;;;;;;12.05;6.62;;;;;;;19.61;78.97;98508.34;4062636;86;21105;-81
2021/07/01 08:49:37;;;;;;;15.98;7.28;;;;;;;19.74;78.93;98511.89;4056903;86;21058;-84
2021/07/01 08:55:40;;;;;;;10.88;6.70;;;;;;;19.84;79.03;98521.25;4071408;85;21134;-82
2021/07/01 09:01:46;;;;;;;14.05;6.30;;;;;;;19.91;78.89;98518.85;4071647;85;21081;-80
2021/07/01 09:07:54;;;;;;;11.20;6.83;;;;;;;20.04;79.12;98520.99;4055620;84;21740;-81
2021/07/01 09:13:58;;;;;;;11.22;6.83;;;;;;;20.10;78.78;98539.42;4065584;85;21490;-81
2021/07/01 09:20:04;;;;;;;12.30;6.17;;;;;;;20.10;78.76;98538.64;4066088;85;21109;-80
2021/07/01 09:26:08;;;;;;;9.60;5.20;;;;;;;20.11;78.97;98537.41;4067059;85;21578;-80
2021/07/01 09:32:11;;;;;;;11.73;4.55;;;;;;;20.17;78.34;98539.83;4046091;85;21074;-81
2021/07/01 09:38:16;;;;;;;8.23;3.62;;;;;;;20.22;77.90;98548.96;4037950;86;21488;-81
2021/07/01 09:44:18;;;;;;;9.25;4.17;;;;;;;20.25;77.60;98543.89;4044969;85;21626;-81
2021/07/01 09:50:26;;;;;;;13.40;4.58;;;;;;;20.23;77.47;98549.14;4042577;85;21145;-80
2021/07/01 09:56:37;;;;;;;5.40;3.50;;;;;;;20.25;77.39;98548.06;4045633;85;21058;-81
2021/07/01 10:02:35;;;;;;;8.55;4.35;;;;;;;20.34;77.44;98552.33;4034494;85;21096;-81
2021/07/01 10:08:39;;;;;;;9.23;4.87;;;;;;;20.38;77.20;98558.53;4045437;86;21130;-80
2021/07/01 10:14:41;;;;;;;10.48;5.05;;;;;;;20.38;77.17;98557.74;4031972;85;21066;-80
2021/07/01 10:20:46;;;;;;;14.95;5.22;;;;;;;20.36;77.14;98560.98;4039417;85;21195;-82
2021/07/01 10:26:51;;;;;;;9.03;4.22;;;;;;;20.43;77.40;98569.08;4042462;86;21602;-82
2021/07/01 10:32:54;;;;;;;10.30;3.75;;;;;;;20.48;77.09;98575.46;4041576;85;21027;-81
2021/07/01 10:38:55;;;;;;;5.37;3.22;;;;;;;20.43;76.93;98575.25;4035969;85;21030;-82
2021/07/01 10:45:12;;;;;;;3.52;2.27;;;;;;;20.35;76.76;98572.55;4043724;85;21078;-81
2021/07/01 10:51:13;;;;;;;5.83;2.80;;;;;;;20.27;76.65;98567.85;4093869;85;21079;-79
2021/07/01 10:57:17;;;;;;;4.87;2.85;;;;;;;20.13;76.61;98566.92;4065008;85;21742;-80
2021/07/01 11:03:25;;;;;;;6.10;3.30;;;;;;;19.91;77.04;98567.46;4060483;85;21151;-79
2021/07/01 11:09:38;;;;;;;4.47;2.50;;;;;;;19.71;77.38;98571.89;4062380;85;21074;-79
2021/07/01 11:16:15;;;;;;;4.65;3.37;;;;;;;19.70;78.10;98567.54;4044631;85;21066;-80
2021/07/01 11:22:18;;;;;;;3.37;3.08;;;;;;;19.82;78.42;98571.53;4041201;85;21163;-78
2021/07/01 11:28:26;;;;;;;4.03;3.00;;;;;;;20.05;78.94;98553.09;4046178;86;21088;-79
2021/07/01 11:34:42;;;;;;;10.10;3.45;;;;;;;20.23;79.18;98548.36;4062403;85;21050;-79
2021/07/01 11:40:44;;;;;;;9.53;4.60;;;;;;;20.29;79.37;98557.07;4044092;85;21562;-80
2021/07/01 11:46:45;;;;;;;5.58;3.80;;;;;;;20.87;79.00;98552.58;4067191;85;21038;-81
2021/07/01 11:52:48;;;;;;;6.03;2.70;;;;;;;21.23;78.62;98556.21;4059217;85;21050;-80
2021/07/01 11:58:50;;;;;;;4.40;2.67;;;;;;;21.45;78.50;98564.68;4056819;85;21554;-81
2021/07/01 12:04:52;;;;;;;4.92;2.40;;;;;;;21.66;78.06;98563.82;4050830;85;21060;-79
2021/07/01 12:11:06;;;;;;;8.23;3.08;;;;;;;21.59;77.52;98563.34;4047300;85;21010;-82
2021/07/01 12:17:08;;;;;;;3.95;2.42;;;;;;;21.69;77.50;98563.51;4055649;85;21101;-80
2021/07/01 12:23:19;;;;;;;5.00;3.12;;;;;;;21.80;77.06;98570.09;4051576;85;21059;-81
2021/07/01 12:29:45;;;;;;;4.00;3.02;;;;;;;22.05;76.35;98561.48;4068966;85;21142;-81
2021/07/01 12:35:47;;;;;;;4.80;4.00;;;;;;;22.23;75.58;98553.14;4108557;85;21099;-81
2021/07/01 12:42:09;;;;;;;5.33;2.80;;;;;;;22.22;74.67;98544.63;4041773;85;22380;-82
2021/07/01 12:48:35;;;;;;;6.80;2.80;;;;;;;22.17;73.61;98545.23;4063463;84;21053;-80
2021/07/01 12:54:42;;;;;;;3.40;2.37;;;;;;;22.26;73.29;98541.84;4056677;84;21141;-85
2021/07/01 13:00:45;;;;;;;2.22;1.60;;;;;;;22.40;72.75;98548.20;4069589;84;22210;-81
2021/07/01 13:06:47;;;;;;;2.22;1.50;;;;;;;22.40;71.67;98557.17;4076978;86;21038;-81
2021/07/01 13:12:51;;;;;;;1.65;1.22;;;;;;;22.24;70.70;98556.10;4073015;86;21569;-82
2021/07/01 13:18:52;;;;;;;4.60;1.60;;;;;;;22.20;70.73;98559.03;4080216;86;21613;-81
2021/07/01 13:25:02;;;;;;;1.40;1.25;;;;;;;22.04;70.53;98552.34;4075684;84;21042;-81
2021/07/01 13:31:04;;;;;;;2.95;1.52;;;;;;;22.20;69.99;98548.49;4060914;85;21124;-82
2021/07/01 13:37:40;;;;;;;2.50;1.50;;;;;;;22.36;69.19;98550.38;4061821;85;21375;-82
2021/07/01 13:43:42;;;;;;;3.60;1.30;;;;;;;22.23;68.93;98544.77;4186251;84;21132;-82
2021/07/01 13:49:47;;;;;;;1.90;1.60;;;;;;;22.28;68.85;98542.77;4191920;84;21480;-82
2021/07/01 13:56:02;;;;;;;2.50;1.80;;;;;;;22.50;68.13;98553.16;4182646;84;21074;-82
2021/07/01 14:02:21;;;;;;;2.40;1.70;;;;;;;22.61;67.94;98555.68;4181751;84;21074;-82
2021/07/01 14:08:27;;;;;;;2.05;1.62;;;;;;;22.73;67.38;98543.57;4201673;82;21074;-81
2021/07/01 14:14:30;;;;;;;1.70;1.50;;;;;;;22.63;67.23;98548.99;4183987;84;21133;-84
2021/07/01 14:20:31;;;;;;;2.12;1.37;;;;;;;22.58;67.33;98548.85;4183200;84;21659;-82
2021/07/01 14:26:44;;;;;;;1.40;1.20;;;;;;;22.63;67.12;98548.99;4176536;84;21091;-82
2021/07/01 14:32:46;;;;;;;4.75;1.55;;;;;;;22.82;66.95;98544.16;4178959;84;21103;-81
2021/07/01 14:38:58;;;;;;;2.33;1.75;;;;;;;22.94;66.55;98553.75;4165662;84;21102;-82
2021/07/01 14:45:16;;;;;;;2.12;1.60;;;;;;;22.94;66.35;98543.98;4111744;85;21066;-82
2021/07/01 14:51:35;;;;;;;4.70;1.40;;;;;;;23.07;66.48;98539.62;4045602;87;21022;-80
2021/07/01 14:57:36;;;;;;;3.75;1.57;;;;;;;23.19;66.52;98547.80;4088328;85;21555;-83
2021/07/01 15:03:39;;;;;;;1.47;1.27;;;;;;;23.39;65.92;98536.76;4060793;85;21150;-81
2021/07/01 15:09:55;;;;;;;5.72;1.52;;;;;;;23.40;65.73;98539.72;4007107;87;21056;-81
2021/07/01 15:15:57;;;;;;;5.90;1.60;;;;;;;23.42;65.42;98531.01;4012536;87;21111;-82
2021/07/01 15:21:58;;;;;;;3.37;1.60;;;;;;;23.15;64.91;98539.45;4019740;85;21074;-82
2021/07/01 15:27:59;;;;;;;4.33;1.57;;;;;;;22.90;64.71;98529.44;4022034;85;21580;-82
2021/07/01 15:34:01;;;;;;;6.22;1.72;;;;;;;22.68;64.95;98526.05;4019622;86;21054;-82
2021/07/01 15:40:05;;;;;;;2.77;1.40;;;;;;;22.48;64.83;98526.34;4104677;83;47228;-82
2021/07/01 15:46:19;;;;;;;3.98;1.50;;;;;;;22.20;65.15;98524.19;4211454;83;21124;-81
2021/07/01 15:52:23;;;;;;;2.85;1.35;;;;;;;22.09;65.30;98530.05;4208088;83;21993;-81
2021/07/01 15:58:28;;;;;;;4.45;1.52;;;;;;;21.99;65.31;98539.02;4206542;83;21670;-81
2021/07/01 16:04:34;;;;;;;2.07;1.17;;;;;;;21.85;65.83;98542.39;4207464;83;21062;-82
2021/07/01 16:10:36;;;;;;;4.07;1.43;;;;;;;21.84;65.99;98534.49;4211264;83;21476;-81
2021/07/01 16:16:38;;;;;;;2.55;1.32;;;;;;;21.93;66.30;98538.69;4211478;81;21352;-82
2021/07/01 16:22:40;;;;;;;1.10;0.90;;;;;;;22.03;66.80;98538.88;4209773;83;21022;-81
2021/07/01 16:28:46;;;;;;;4.53;0.98;;;;;;;22.29;66.66;98549.28;4206338;81;21141;-81
2021/07/01 16:34:46;;;;;;;5.50;0.90;;;;;;;22.42;66.59;98557.49;4208656;83;21057;-81
2021/07/01 16:40:47;;;;;;;2.37;1.27;;;;;;;22.51;65.59;98562.48;4073470;82;10000380;-81
2021/07/01 16:46:51;;;;;;;4.00;1.30;;;;;;;22.56;65.02;98566.67;4176681;83;21572;-80
2021/07/01 16:52:53;;;;;;;4.45;1.30;;;;;;;22.46;64.49;98561.67;4167427;83;21105;-82
2021/07/01 16:58:58;;;;;;;4.87;1.90;;;;;;;22.29;64.76;98564.61;4163091;83;21138;-80
2021/07/01 17:05:00;;;;;;;3.92;1.98;;;;;;;22.10;65.16;98574.18;4168171;83;21107;-82
2021/07/01 17:11:06;;;;;;;5.45;2.00;;;;;;;21.87;65.20;98589.30;4171700;83;21081;-81
2021/07/01 17:17:11;;;;;;;4.07;2.63;;;;;;;21.58;65.46;98582.05;4168166;83;21637;-81
2021/07/01 17:23:13;;;;;;;4.23;2.57;;;;;;;21.44;66.01;98566.50;4148807;83;21958;-81
2021/07/01 17:29:17;;;;;;;2.90;2.00;;;;;;;21.32;66.02;98570.95;4163715;83;21866;-81
2021/07/01 17:35:20;;;;;;;2.47;1.67;;;;;;;21.21;66.19;98579.55;4180173;84;21022;-81
2021/07/01 17:41:22;;;;;;;2.22;1.80;;;;;;;21.11;66.43;98577.32;4189065;83;21447;-82
2021/07/01 17:47:24;;;;;;;3.55;1.50;;;;;;;21.06;66.64;98580.72;4216168;83;21082;-81
2021/07/01 17:53:25;;;;;;;1.65;1.22;;;;;;;20.97;66.66;98582.03;4214483;83;21883;-81
2021/07/01 17:59:28;;;;;;;2.00;1.40;;;;;;;20.96;66.92;98592.22;4212768;83;21579;-81
2021/07/01 18:05:31;;;;;;;2.35;1.47;;;;;;;20.94;67.29;98587.08;4216134;83;21531;-81
2021/07/01 18:11:38;;;;;;;3.00;1.62;;;;;;;20.89;67.53;98584.88;4217134;81;21003;-80
2021/07/01 18:17:40;;;;;;;5.30;2.20;;;;;;;20.75;67.77;98579.83;4210059;82;21088;-80
2021/07/01 18:23:41;;;;;;;2.17;1.70;;;;;;;20.72;67.47;98589.08;4213485;83;21010;-81
2021/07/01 18:29:43;;;;;;;3.55;2.47;;;;;;;20.67;67.14;98599.39;4216532;83;21532;-81
2021/07/01 18:35:45;;;;;;;4.70;1.98;;;;;;;20.55;66.91;98607.17;4214885;83;21077;-80
2021/07/01 18:41:47;;;;;;;5.83;1.90;;;;;;;20.40;67.58;98606.13;4184423;83;21727;-81
2021/07/01 18:47:50;;;;;;;4.95;2.55;;;;;;;20.32;67.52;98623.48;4147154;84;21700;-81
2021/07/01 18:53:51;;;;;;;14.33;8.45;;;;;;;20.20;67.61;98637.59;4141121;84;21072;-81
2021/07/01 18:59:53;;;;;;;10.38;6.55;;;;;;;20.04;68.02;98644.03;4137191;84;21134;-81
2021/07/01 19:05:55;;;;;;;12.55;7.20;;;;;;;20.04;68.64;98650.97;4148837;84;21036;-80
2021/07/01 19:11:58;;;;;;;10.32;5.58;;;;;;;19.95;69.01;98655.02;4143853;84;21044;-81
2021/07/01 19:18:00;;;;;;;7.40;4.25;;;;;;;19.93;69.48;98666.41;4142666;83;21000;-81
2021/07/01 19:24:01;;;;;;;10.00;4.70;;;;;;;19.85;69.64;98673.41;4055283;86;21100;-83
2021/07/01 19:30:08;;;;;;;17.32;7.35;;;;;;;19.65;69.84;98670.86;4059750;86;21399;-80
2021/07/01 19:36:10;;;;;;;11.48;5.28;;;;;;;19.55;70.02;98673.94;4070285;86;21533;-81
2021/07/01 19:42:11;;;;;;;9.75;6.15;;;;;;;19.39;70.34;98682.34;3990250;84;10000334;-82
2021/07/01 19:48:25;;;;;;;10.75;6.10;;;;;;;19.39;70.81;98685.11;4130018;85;22007;-81
2021/07/01 19:54:27;;;;;;;12.10;6.55;;;;;;;19.35;71.47;98681.08;4138541;85;21017;-81
2021/07/01 20:00:28;;;;;;;13.05;5.62;;;;;;;19.31;72.08;98671.30;4138978;84;21111;-81
2021/07/01 20:06:30;;;;;;;9.73;6.28;;;;;;;19.08;71.79;98684.00;4139963;84;21046;-81
2021/07/01 20:12:31;;;;;;;12.05;6.55;;;;;;;18.99;72.20;98676.33;4049983;85;21108;-80
2021/07/01 20:18:34;;;;;;;10.05;5.40;;;;;;;18.97;72.58;98682.13;4048498;86;22054;-81
2021/07/01 20:24:35;;;;;;;12.05;5.20;;;;;;;18.87;72.45;98685.36;4040742;86;21605;-80
2021/07/01 20:30:38;;;;;;;6.62;3.72;;;;;;;18.67;72.20;98687.48;4047674;86;21116;-81
2021/07/01 20:36:41;;;;;;;8.80;4.35;;;;;;;18.41;72.47;98689.95;4048553;86;21508;-80
2021/07/01 20:42:43;;;;;;;5.80;3.47;;;;;;;18.35;72.48;98692.41;4041284;86;21073;-80
2021/07/01 20:48:44;;;;;;;8.00;4.80;;;;;;;18.12;72.55;98698.77;4058985;86;21148;-81
2021/07/01 20:54:46;;;;;;;9.55;3.72;;;;;;;18.08;72.83;98695.28;3968374;87;21133;-80
2021/07/01 21:00:47;;;;;;;7.70;3.15;;;;;;;18.03;72.97;98691.03;4048916;86;21153;-80
2021/07/01 21:06:51;;;;;;;7.85;3.83;;;;;;;17.83;72.73;98688.15;4057694;86;21031;-80
2021/07/01 21:13:00;;;;;;;6.80;3.52;;;;;;;17.80;73.50;98688.41;3995987;88;21952;-80
2021/07/01 21:19:03;;;;;;;5.40;2.90;;;;;;;17.77;73.69;98698.18;4030829;87;21142;-81
2021/07/01 21:25:05;;;;;;;5.97;3.02;;;;;;;17.64;73.79;98695.30;4040484;87;21097;-80
2021/07/01 21:31:07;;;;;;;6.03;3.05;;;;;;;17.62;73.75;98698.33;4039273;86;21062;-80
2021/07/01 21:37:09;;;;;;;6.60;4.17;;;;;;;17.64;74.01;98699.45;4038891;86;21581;-80
2021/07/01 21:43:12;;;;;;;9.15;3.87;;;;;;;17.43;73.50;98701.86;4064551;85;21550;-80
2021/07/01 21:49:15;;;;;;;6.72;3.65;;;;;;;17.34;74.51;98705.81;4095224;85;21063;-80
2021/07/01 21:55:19;;;;;;;7.37;3.08;;;;;;;17.27;74.35;98696.27;4087921;85;21101;-80
2021/07/01 22:01:23;;;;;;;6.45;4.05;;;;;;;17.13;74.37;98695.33;4088715;85;21046;-80
2021/07/01 22:07:24;;;;;;;5.58;3.42;;;;;;;16.92;74.68;98694.97;4136586;84;21634;-80
2021/07/01 22:13:30;;;;;;;6.78;3.00;;;;;;;16.93;75.43;98703.44;4139002;84;21122;-80
2021/07/01 22:25:35;;;;;;;7.87;3.08;;;;;;;16.90;76.35;98713.37;4137692;84;21084;-80
2021/07/01 22:31:37;;;;;;;9.58;3.77;;;;;;;16.96;76.76;98697.84;4137767;84;21050;-80
2021/07/01 22:37:38;;;;;;;5.35;3.50;;;;;;;16.98;76.54;98707.09;4138321;84;21062;-80
2021/07/01 22:43:40;;;;;;;5.85;3.37;;;;;;;16.87;76.72;98708.69;4133339;84;21134;-80
2021/07/01 22:49:41;;;;;;;7.90;4.08;;;;;;;16.88;77.13;98719.91;4132067;85;21066;-80
2021/07/01 22:55:44;;;;;;;9.28;4.55;;;;;;;16.84;76.94;98719.21;4131148;85;21029;-80
2021/07/01 23:01:45;;;;;;;9.23;4.78;;;;;;;16.71;77.01;98713.34;4129758;85;21082;-80
2021/07/01 23:07:46;;;;;;;6.95;3.72;;;;;;;16.60;77.25;98720.42;4135875;85;21606;-80
2021/07/01 23:13:48;;;;;;;6.75;3.90;;;;;;;16.65;77.61;98719.16;4134340;85;21181;-79
2021/07/01 23:19:50;;;;;;;5.55;3.52;;;;;;;16.75;78.32;98717.61;4129445;85;20976;-80
2021/07/01 23:25:51;;;;;;;7.33;3.50;;;;;;;16.83;78.23;98705.81;4132598;85;21142;-80
2021/07/01 23:31:52;;;;;;;4.33;3.37;;;;;;;16.88;78.60;98709.48;4131955;85;21887;-79
2021/07/01 23:37:54;;;;;;;7.12;3.70;;;;;;;16.95;78.49;98709.33;4135294;85;21074;-80
2021/07/01 23:43:55;;;;;;;13.43;3.58;;;;;;;16.93;78.87;98709.75;4126603;85;21907;-80
2021/07/01 23:49:57;;;;;;;14.95;3.72;;;;;;;16.96;78.67;98715.05;4130437;85;21471;-81
2021/07/01 23:55:58;;;;;;;7.28;3.37;;;;;;;16.97;79.08;98709.10;4123942;85;21121;-80
